createdAt,value
2022-08-19T00:01:41.192Z,7.60
2022-08-19T00:04:14.061Z,7.60
2022-08-19T00:06:44.387Z,7.60
2022-08-19T00:09:14.204Z,7.10
2022-08-19T00:11:42.664Z,7.30
2022-08-19T00:14:12.400Z,7.10
2022-08-19T00:16:42.445Z,7.20
2022-08-19T00:19:10.688Z,6.80
2022-08-19T00:21:40.537Z,7.10
2022-08-19T00:24:09.477Z,7.50
2022-08-19T00:26:38.107Z,7.60
2022-08-19T00:29:07.325Z,8.20
2022-08-19T00:31:35.559Z,8.90
2022-08-19T00:34:04.106Z,9.60
2022-08-19T00:36:33.564Z,10.10
2022-08-19T00:39:03.366Z,10.70
2022-08-19T00:41:31.554Z,11.70
2022-08-19T00:44:06.349Z,11.70
2022-08-19T00:46:36.566Z,11.60
2022-08-19T00:49:09.173Z,12.90
2022-08-19T00:51:37.421Z,14.00
2022-08-19T00:54:07.309Z,14.70
2022-08-19T00:56:35.513Z,15.00
2022-08-19T00:59:03.830Z,14.90
2022-08-19T01:01:32.205Z,15.40
2022-08-19T01:04:00.589Z,15.60
2022-08-19T01:07:17.432Z,15.60
2022-08-19T01:09:49.252Z,16.20
2022-08-19T01:12:17.526Z,16.40
2022-08-19T01:14:45.826Z,16.90
2022-08-19T01:17:14.100Z,17.40
2022-08-19T01:19:44.831Z,18.00
2022-08-19T01:22:16.948Z,18.40
2022-08-19T01:24:49.964Z,18.70
2022-08-19T01:27:18.892Z,19.50
2022-08-19T01:29:48.866Z,20.20
2022-08-19T01:32:33.281Z,21.20
2022-08-19T01:35:03.581Z,21.80
2022-08-19T01:37:32.325Z,22.80
2022-08-19T01:40:04.335Z,23.20
2022-08-19T01:42:35.870Z,23.80
2022-08-19T01:45:04.169Z,24.00
2022-08-19T01:47:32.340Z,24.30
2022-08-19T01:50:00.947Z,24.10
2022-08-19T01:52:29.907Z,23.80
2022-08-19T01:54:58.356Z,24.00
2022-08-19T01:57:27.994Z,24.10
2022-08-19T01:59:56.177Z,24.00
2022-08-19T02:02:24.793Z,24.20
2022-08-19T02:04:52.986Z,24.40
2022-08-19T02:07:22.471Z,24.20
2022-08-19T02:09:50.677Z,24.20
2022-08-19T02:12:18.870Z,24.20
2022-08-19T02:14:48.614Z,24.40
2022-08-19T02:17:16.818Z,24.20
2022-08-19T02:19:45.052Z,24.10
2022-08-19T02:22:13.245Z,24.20
2022-08-19T02:24:41.477Z,24.20
2022-08-19T02:27:09.703Z,24.30
2022-08-19T02:29:37.914Z,24.50
2022-08-19T02:32:08.123Z,24.40
2022-08-19T02:34:36.758Z,24.20
2022-08-19T02:37:05.018Z,23.90
2022-08-19T02:39:32.328Z,23.40
2022-08-19T02:42:00.761Z,23.40
2022-08-19T02:44:31.791Z,23.90
2022-08-19T02:47:00.239Z,23.50
2022-08-19T02:49:29.961Z,23.50
2022-08-19T02:52:03.160Z,23.60
2022-08-19T02:54:31.630Z,23.60
2022-08-19T02:56:59.832Z,23.90
2022-08-19T02:59:28.030Z,24.00
2022-08-19T03:01:56.285Z,24.00
2022-08-19T03:04:25.306Z,24.20
2022-08-19T03:06:57.547Z,24.30
2022-08-19T03:09:27.785Z,24.40
2022-08-19T03:11:56.048Z,24.50
2022-08-19T03:14:24.271Z,24.40
2022-08-19T03:16:53.879Z,24.50
2022-08-19T03:19:23.298Z,24.90
2022-08-19T03:21:51.744Z,25.10
2022-08-19T03:24:21.706Z,25.60
2022-08-19T03:26:53.250Z,25.80
2022-08-19T03:29:30.901Z,25.70
2022-08-19T03:32:01.800Z,26.40
2022-08-19T03:34:32.429Z,26.00
2022-08-19T03:37:05.372Z,26.40
2022-08-19T03:39:35.063Z,26.50
2022-08-19T03:42:31.916Z,26.60
2022-08-19T03:44:52.024Z,26.60
2022-08-19T03:47:20.387Z,26.40
2022-08-19T03:49:48.586Z,26.20
2022-08-19T03:52:16.809Z,26.10
2022-08-19T03:54:46.392Z,26.10
2022-08-19T03:57:14.630Z,26.10
2022-08-19T03:59:42.876Z,26.00
2022-08-19T04:02:13.282Z,26.20
2022-08-19T04:04:43.429Z,26.10
2022-08-19T04:07:12.167Z,26.30
2022-08-19T04:09:40.464Z,26.60
2022-08-19T04:12:10.562Z,27.00
2022-08-19T04:14:38.824Z,27.00
2022-08-19T04:17:07.257Z,27.00
2022-08-19T04:19:36.566Z,27.00
2022-08-19T04:22:05.464Z,27.10
2022-08-19T04:24:33.722Z,27.10
2022-08-19T04:27:02.968Z,27.10
2022-08-19T04:29:32.717Z,27.10
2022-08-19T04:32:08.966Z,27.10
2022-08-19T04:35:01.626Z,27.10
2022-08-19T04:37:27.451Z,27.10
2022-08-19T04:40:25.405Z,27.60
2022-08-19T04:42:54.523Z,27.10
2022-08-19T04:45:24.486Z,27.10
2022-08-19T04:47:58.723Z,27.20
2022-08-19T04:50:45.498Z,27.70
2022-08-19T04:53:13.788Z,27.10
2022-08-19T04:55:43.146Z,26.60
2022-08-19T04:58:11.396Z,26.00
2022-08-19T05:00:42.003Z,25.70
2022-08-19T05:03:10.534Z,25.80
2022-08-19T05:05:44.770Z,25.40
2022-08-19T05:08:15.205Z,25.60
2022-08-19T05:10:43.873Z,24.60
2022-08-19T05:13:12.244Z,23.80
2022-08-19T05:15:41.921Z,24.00
2022-08-19T05:18:29.662Z,23.70
2022-08-19T05:21:15.496Z,23.40
2022-08-19T05:23:45.366Z,23.40
2022-08-19T05:26:13.997Z,23.40
2022-08-19T05:28:42.241Z,23.50
2022-08-19T05:31:11.838Z,23.40
2022-08-19T05:33:40.613Z,23.60
2022-08-19T05:36:09.528Z,23.50
2022-08-19T05:38:37.756Z,23.40
2022-08-19T05:41:10.097Z,23.40
2022-08-19T05:43:38.790Z,23.10
2022-08-19T05:46:07.690Z,22.80
2022-08-19T05:48:37.429Z,23.30
2022-08-19T05:51:07.107Z,23.00
2022-08-19T05:53:35.357Z,23.10
2022-08-19T05:56:07.859Z,21.60
2022-08-19T05:58:36.054Z,19.80
2022-08-19T06:01:06.326Z,21.10
2022-08-19T06:03:37.290Z,21.50
2022-08-19T06:06:06.419Z,20.80
2022-08-19T06:08:35.097Z,20.20
2022-08-19T06:11:22.044Z,19.80
2022-08-19T06:13:59.457Z,19.70
2022-08-19T06:16:28.748Z,19.70
2022-08-19T06:18:58.965Z,19.80
2022-08-19T06:21:28.911Z,20.50
2022-08-19T06:23:59.101Z,22.00
2022-08-19T06:26:27.541Z,21.70
2022-08-19T06:28:55.778Z,20.20
2022-08-19T06:31:26.265Z,21.20
2022-08-19T06:33:54.476Z,21.20
2022-08-19T06:36:32.439Z,21.10
2022-08-19T06:39:00.695Z,20.50
2022-08-19T06:41:29.375Z,20.00
2022-08-19T06:43:57.775Z,20.10
2022-08-19T06:46:26.288Z,20.10
2022-08-19T06:48:55.376Z,20.00
2022-08-19T06:51:25.420Z,19.70
2022-08-19T06:53:57.431Z,20.20
2022-08-19T06:56:31.966Z,18.70
2022-08-19T06:59:00.234Z,18.70
2022-08-19T07:01:28.567Z,17.80
2022-08-19T07:03:57.571Z,17.20
2022-08-19T07:06:43.435Z,17.90
2022-08-19T07:09:14.213Z,17.30
2022-08-19T07:11:46.752Z,17.90
2022-08-19T07:14:19.132Z,17.60
2022-08-19T07:16:48.330Z,18.50
2022-08-19T07:19:18.887Z,18.80
2022-08-19T07:21:49.134Z,17.80
2022-08-19T07:24:19.030Z,19.20
2022-08-19T07:26:47.332Z,20.70
2022-08-19T07:29:25.682Z,19.50
2022-08-19T07:31:57.365Z,18.40
2022-08-19T07:34:25.769Z,17.80
2022-08-19T07:36:55.503Z,17.80
2022-08-19T07:39:26.241Z,17.90
2022-08-19T07:41:54.474Z,16.70
2022-08-19T07:44:23.873Z,16.20
2022-08-19T07:46:56.710Z,15.70
2022-08-19T07:49:25.237Z,16.10
2022-08-19T07:51:56.770Z,16.90
2022-08-19T07:54:25.835Z,14.20
2022-08-19T07:56:54.109Z,15.80
2022-08-19T07:59:22.607Z,15.00
2022-08-19T08:01:51.165Z,16.30
2022-08-19T08:04:37.079Z,15.80
2022-08-19T08:07:24.516Z,14.00
2022-08-19T08:10:00.495Z,14.30
2022-08-19T08:12:35.156Z,12.60
2022-08-19T08:15:08.881Z,12.70
2022-08-19T08:17:49.177Z,11.50
2022-08-19T08:20:20.031Z,6.80
2022-08-19T08:23:07.397Z,6.40
2022-08-19T08:25:36.602Z,6.30
2022-08-19T08:28:05.653Z,7.70
2022-08-19T08:30:36.770Z,4.60
2022-08-19T08:33:06.249Z,1.00
2022-08-19T08:35:34.609Z,1.00
2022-08-19T08:38:05.314Z,1.00
2022-08-19T08:40:44.498Z,1.00
2022-08-19T08:43:23.824Z,1.00
2022-08-19T08:46:02.306Z,1.00
2022-08-19T08:48:38.470Z,1.00
2022-08-19T08:51:09.678Z,1.00
2022-08-19T08:53:41.781Z,1.00
2022-08-19T08:56:13.414Z,1.00
2022-08-19T08:58:54.387Z,1.00
2022-08-19T09:01:23.433Z,1.00
2022-08-19T09:03:51.927Z,1.00
2022-08-19T09:06:25.954Z,1.00
2022-08-19T09:09:03.732Z,1.00
2022-08-19T09:11:44.567Z,1.00
2022-08-19T09:14:47.375Z,1.00
2022-08-19T09:17:09.654Z,1.00
2022-08-19T09:19:38.598Z,1.00
2022-08-19T09:22:08.684Z,1.00
2022-08-19T09:24:40.762Z,1.00
2022-08-19T09:27:18.517Z,1.00
2022-08-19T09:29:49.527Z,1.00
2022-08-19T09:32:26.183Z,1.00
2022-08-19T09:34:55.733Z,1.00
2022-08-19T09:37:24.941Z,1.00
2022-08-19T09:39:54.840Z,1.00
2022-08-19T09:42:30.430Z,1.00
2022-08-19T09:45:05.095Z,1.00
2022-08-19T09:47:37.134Z,1.00
2022-08-19T09:50:10.652Z,1.00
2022-08-19T09:52:39.009Z,1.00
2022-08-19T09:55:23.503Z,1.00
2022-08-19T09:57:52.598Z,1.00
2022-08-19T10:00:21.954Z,1.00
2022-08-19T10:02:50.226Z,1.00
2022-08-19T10:05:38.817Z,1.00
2022-08-19T10:08:13.009Z,1.00
2022-08-19T10:10:46.302Z,1.00
2022-08-19T10:13:16.550Z,1.00
2022-08-19T10:15:47.487Z,1.00
2022-08-19T10:18:17.736Z,1.00
2022-08-19T10:20:46.412Z,1.00
2022-08-19T10:23:20.762Z,1.00
2022-08-19T10:25:52.384Z,1.00
2022-08-19T10:28:20.648Z,1.00
2022-08-19T10:30:51.994Z,1.00
2022-08-19T10:33:38.882Z,1.00
2022-08-19T10:36:11.700Z,1.00
2022-08-19T10:38:40.093Z,1.00
2022-08-19T10:41:24.078Z,1.00
2022-08-19T10:43:53.492Z,1.00
2022-08-19T10:46:22.627Z,1.00
2022-08-19T10:48:51.174Z,1.00
2022-08-19T10:51:37.519Z,1.00
2022-08-19T10:54:14.912Z,1.00
2022-08-19T10:56:52.618Z,1.00
2022-08-19T10:59:22.514Z,1.00
2022-08-19T11:01:55.764Z,1.00
2022-08-19T11:04:28.816Z,1.00
2022-08-19T11:06:58.422Z,1.00
2022-08-19T11:09:33.541Z,1.00
2022-08-19T11:12:05.073Z,1.00
2022-08-19T11:14:34.491Z,1.00
2022-08-19T11:17:02.991Z,1.00
2022-08-19T11:19:31.339Z,1.00
2022-08-19T11:22:02.344Z,1.00
2022-08-19T11:24:32.126Z,1.00
2022-08-19T11:27:06.710Z,1.00
2022-08-19T11:29:35.466Z,1.00
2022-08-19T11:32:06.397Z,1.00
2022-08-19T11:34:36.424Z,1.00
2022-08-19T11:37:04.994Z,1.00
2022-08-19T11:39:34.827Z,1.00
2022-08-19T11:42:24.944Z,1.00
2022-08-19T11:44:53.242Z,1.00
2022-08-19T11:47:21.542Z,1.00
2022-08-19T11:49:49.874Z,1.00
2022-08-19T11:52:18.148Z,1.00
2022-08-19T11:54:46.405Z,1.00
2022-08-19T11:57:17.843Z,1.00
2022-08-19T11:59:51.374Z,1.00
2022-08-19T12:02:20.124Z,1.00
2022-08-19T12:04:48.424Z,1.00
2022-08-19T12:07:16.742Z,1.00
2022-08-19T12:09:44.930Z,1.00
2022-08-19T12:12:15.650Z,1.00
2022-08-19T12:14:43.930Z,1.00
2022-08-19T12:17:12.425Z,1.00
2022-08-19T12:19:42.206Z,1.00
2022-08-19T12:22:10.483Z,1.00
2022-08-19T12:24:38.724Z,1.00
2022-08-19T12:27:12.753Z,1.00
2022-08-19T12:29:42.618Z,1.00
2022-08-19T12:32:12.307Z,1.00
2022-08-19T12:34:40.781Z,1.00
2022-08-19T12:37:09.065Z,1.00
2022-08-19T12:39:39.631Z,1.00
2022-08-19T12:42:10.037Z,1.00
2022-08-19T12:44:38.511Z,1.00
2022-08-19T12:47:11.969Z,1.00
2022-08-19T12:49:53.214Z,1.00
2022-08-19T12:52:25.126Z,1.00
2022-08-19T12:54:54.612Z,1.00
2022-08-19T12:57:29.889Z,1.00
2022-08-19T13:00:04.700Z,1.00
2022-08-19T13:02:39.019Z,1.00
2022-08-19T13:05:10.787Z,1.00
2022-08-19T13:07:39.502Z,1.00
2022-08-19T13:10:10.057Z,1.00
2022-08-19T13:12:38.362Z,1.00
2022-08-19T13:15:11.025Z,1.00
2022-08-19T13:17:41.258Z,1.00
2022-08-19T13:20:12.028Z,1.00
2022-08-19T13:22:40.317Z,1.00
2022-08-19T13:25:09.988Z,1.00
2022-08-19T13:27:38.432Z,1.00
2022-08-19T13:30:26.086Z,1.00
2022-08-19T13:33:15.960Z,1.00
2022-08-19T13:35:47.639Z,1.00
2022-08-19T13:38:17.431Z,1.00
2022-08-19T13:40:45.987Z,1.00
2022-08-19T13:43:22.827Z,1.00
2022-08-19T13:45:53.695Z,1.00
2022-08-19T13:48:23.400Z,1.00
2022-08-19T13:50:51.666Z,1.00
2022-08-19T13:53:20.046Z,1.00
2022-08-19T13:55:48.394Z,1.00
2022-08-19T13:58:16.598Z,1.00
2022-08-19T14:00:46.839Z,1.00
2022-08-19T14:03:15.325Z,1.00
2022-08-19T14:05:44.935Z,1.00
2022-08-19T14:08:13.325Z,1.00
2022-08-19T14:10:43.687Z,1.00
2022-08-19T14:13:11.944Z,1.00
2022-08-19T14:15:40.615Z,1.00
2022-08-19T14:18:08.850Z,1.00
2022-08-19T14:20:37.156Z,1.00
2022-08-19T14:23:07.176Z,1.00
2022-08-19T14:25:35.522Z,1.00
2022-08-19T14:28:04.009Z,1.00
2022-08-19T14:30:33.703Z,1.00
2022-08-19T14:33:03.058Z,1.00
2022-08-19T14:35:33.541Z,1.00
2022-08-19T14:38:02.137Z,1.00
2022-08-19T14:40:32.680Z,1.00
2022-08-19T14:43:05.134Z,1.00
2022-08-19T14:45:34.836Z,1.00
2022-08-19T14:48:05.516Z,1.00
2022-08-19T14:50:33.830Z,1.00
2022-08-19T14:53:09.081Z,1.00
2022-08-19T14:55:44.565Z,1.00
2022-08-19T14:58:28.296Z,1.00
2022-08-19T15:00:59.920Z,1.00
2022-08-19T15:03:28.263Z,1.00
2022-08-19T15:05:57.511Z,1.00
2022-08-19T15:08:26.432Z,1.00
2022-08-19T15:10:56.124Z,1.00
2022-08-19T15:13:25.593Z,1.00
2022-08-19T15:15:53.908Z,1.00
2022-08-19T15:18:22.682Z,1.00
2022-08-19T15:20:51.128Z,1.00
2022-08-19T15:23:21.777Z,1.00
2022-08-19T15:25:53.001Z,1.00
2022-08-19T15:28:22.710Z,1.00
2022-08-19T15:30:51.536Z,1.00
2022-08-19T15:33:20.671Z,1.00
2022-08-19T15:35:50.935Z,1.00
2022-08-19T15:38:22.020Z,1.00
2022-08-19T15:40:50.594Z,1.00
2022-08-19T15:43:19.282Z,1.00
2022-08-19T15:45:49.612Z,1.00
2022-08-19T15:48:17.887Z,1.00
2022-08-19T15:50:46.154Z,1.00
2022-08-19T15:53:14.394Z,1.00
2022-08-19T15:55:45.088Z,1.00
2022-08-19T15:58:32.757Z,1.00
2022-08-19T16:01:23.710Z,1.00
2022-08-19T16:04:11.296Z,1.00
2022-08-19T16:06:43.483Z,1.00
2022-08-19T16:09:13.087Z,1.00
2022-08-19T16:11:45.447Z,1.00
2022-08-19T16:14:14.606Z,1.00
2022-08-19T16:16:46.689Z,1.00
2022-08-19T16:19:16.581Z,1.00
2022-08-19T16:21:45.272Z,1.00
2022-08-19T16:24:14.645Z,1.00
2022-08-19T16:26:43.272Z,1.00
2022-08-19T16:29:13.084Z,1.00
2022-08-19T16:31:43.581Z,1.00
2022-08-19T16:34:12.204Z,1.00
2022-08-19T16:36:41.844Z,1.00
2022-08-19T16:39:10.968Z,1.00
2022-08-19T16:41:39.377Z,1.00
2022-08-19T16:44:07.736Z,1.00
2022-08-19T16:46:37.200Z,1.00
2022-08-19T16:49:06.816Z,1.00
2022-08-19T16:51:35.056Z,1.00
2022-08-19T16:54:03.983Z,1.00
2022-08-19T16:56:32.216Z,1.00
2022-08-19T16:59:00.678Z,1.00
2022-08-19T17:01:29.061Z,1.00
2022-08-19T17:03:57.461Z,1.00
2022-08-19T17:06:28.943Z,1.00
2022-08-19T17:08:59.277Z,1.00
2022-08-19T17:11:28.961Z,1.00
2022-08-19T17:13:59.045Z,1.00
2022-08-19T17:16:28.989Z,1.00
2022-08-19T17:18:58.246Z,1.00
2022-08-19T17:21:29.300Z,1.00
2022-08-19T17:23:57.937Z,1.00
2022-08-19T17:26:26.558Z,1.00
2022-08-19T17:28:56.658Z,1.00
2022-08-19T17:31:27.010Z,1.00
2022-08-19T17:33:56.183Z,1.60
2022-08-19T17:36:26.171Z,1.50
2022-08-19T17:38:56.397Z,1.50
2022-08-19T17:41:24.854Z,1.30
2022-08-19T17:43:53.145Z,1.20
2022-08-19T17:46:21.428Z,2.40
2022-08-19T17:48:52.909Z,3.70
2022-08-19T17:51:23.344Z,3.70
2022-08-19T17:53:52.588Z,3.70
2022-08-19T17:56:23.533Z,3.80
2022-08-19T17:59:00.760Z,4.50
2022-08-19T18:01:44.128Z,5.50
2022-08-19T18:04:19.755Z,5.60
2022-08-19T18:06:53.571Z,5.80
2022-08-19T18:09:24.619Z,5.70
2022-08-19T18:11:56.751Z,6.10
2022-08-19T18:14:32.754Z,6.10
2022-08-19T18:17:01.899Z,6.70
2022-08-19T18:19:41.017Z,6.50
2022-08-19T18:22:10.256Z,5.90
2022-08-19T18:24:39.685Z,5.50
2022-08-19T18:27:10.004Z,5.10
2022-08-19T18:29:40.151Z,5.50
2022-08-19T18:32:12.687Z,5.80
2022-08-19T18:34:41.553Z,5.80
2022-08-19T18:37:10.161Z,5.80
2022-08-19T18:39:56.132Z,6.10
2022-08-19T18:42:43.252Z,6.50
2022-08-19T18:45:29.200Z,6.70
2022-08-19T18:48:22.135Z,6.50
2022-08-19T18:50:55.438Z,6.10
2022-08-19T18:53:23.666Z,6.20
2022-08-19T18:55:53.867Z,5.50
2022-08-19T18:58:26.365Z,5.80
2022-08-19T19:00:56.824Z,6.50
2022-08-19T19:03:25.746Z,6.40
2022-08-19T19:05:54.040Z,6.50
2022-08-19T19:08:26.814Z,6.70
2022-08-19T19:10:56.949Z,6.60
2022-08-19T19:13:29.311Z,7.30
2022-08-19T19:15:57.582Z,7.00
2022-08-19T19:18:25.870Z,7.60
2022-08-19T19:20:54.152Z,7.60
2022-08-19T19:23:22.508Z,8.10
2022-08-19T19:25:52.277Z,7.70
2022-08-19T19:28:25.730Z,7.60
2022-08-19T19:30:58.445Z,8.10
2022-08-19T19:33:26.790Z,7.60
2022-08-19T19:35:55.120Z,8.20
2022-08-19T19:38:23.366Z,8.20
2022-08-19T19:40:51.601Z,9.10
2022-08-19T19:43:19.881Z,9.10
2022-08-19T19:45:49.016Z,9.40
2022-08-19T19:48:18.636Z,9.70
2022-08-19T19:50:53.993Z,10.10
2022-08-19T19:53:26.032Z,10.10
2022-08-19T19:55:58.581Z,10.20
2022-08-19T19:58:28.546Z,10.60
2022-08-19T20:00:58.750Z,10.40
2022-08-19T20:03:29.793Z,10.50
2022-08-19T20:05:59.321Z,10.90
2022-08-19T20:08:45.870Z,11.10
2022-08-19T20:11:17.797Z,11.50
2022-08-19T20:13:46.030Z,11.50
2022-08-19T20:16:14.270Z,11.90
2022-08-19T20:18:43.826Z,11.90
2022-08-19T20:21:12.402Z,12.40
2022-08-19T20:23:40.659Z,11.90
2022-08-19T20:26:12.181Z,11.90
2022-08-19T20:28:58.334Z,11.90
2022-08-19T20:31:57.365Z,11.90
2022-08-19T20:34:28.976Z,11.90
2022-08-19T20:36:57.265Z,12.20
2022-08-19T20:39:25.513Z,11.90
2022-08-19T20:41:56.395Z,12.30
2022-08-19T20:44:24.802Z,12.60
2022-08-19T20:46:54.710Z,12.10
2022-08-19T20:49:27.107Z,12.00
2022-08-19T20:51:58.437Z,12.20
2022-08-19T20:54:27.090Z,11.90
2022-08-19T20:56:55.370Z,11.80
2022-08-19T20:59:23.736Z,11.80
2022-08-19T21:01:52.214Z,11.80
2022-08-19T21:04:20.821Z,11.80
2022-08-19T21:06:49.033Z,11.90
2022-08-19T21:09:18.687Z,12.10
2022-08-19T21:11:46.960Z,11.80
2022-08-19T21:14:15.242Z,11.70
2022-08-19T21:16:43.520Z,11.70
2022-08-19T21:19:11.885Z,11.70
2022-08-19T21:21:40.168Z,12.00
2022-08-19T21:24:08.686Z,12.10
2022-08-19T21:26:38.249Z,11.70
2022-08-19T21:29:06.525Z,11.70
2022-08-19T21:31:35.088Z,11.70
2022-08-19T21:34:03.364Z,11.70
2022-08-19T21:36:31.633Z,11.70
2022-08-19T21:38:59.886Z,11.80
2022-08-19T21:41:28.122Z,11.70
2022-08-19T21:43:57.885Z,11.80
2022-08-19T21:46:26.180Z,11.80
2022-08-19T21:48:54.909Z,11.80
2022-08-19T21:51:23.266Z,11.70
2022-08-19T21:53:52.945Z,11.80
2022-08-19T21:56:21.423Z,11.30
2022-08-19T21:58:49.812Z,11.30
2022-08-19T22:01:19.499Z,11.60
2022-08-19T22:03:48.356Z,11.30
2022-08-19T22:06:17.721Z,11.80
2022-08-19T22:08:46.123Z,11.30
2022-08-19T22:11:14.367Z,11.00
2022-08-19T22:13:42.684Z,11.30
2022-08-19T22:16:11.153Z,11.10
2022-08-19T22:18:40.783Z,11.60
2022-08-19T22:21:11.905Z,11.70
2022-08-19T22:23:41.803Z,11.70
2022-08-19T22:26:10.151Z,12.00
2022-08-19T22:28:38.553Z,12.00
2022-08-19T22:31:08.173Z,12.50
2022-08-19T22:33:37.415Z,13.00
2022-08-19T22:36:08.558Z,13.30
2022-08-19T22:38:37.390Z,13.30
2022-08-19T22:41:07.831Z,13.50
2022-08-19T22:43:36.893Z,13.90
2022-08-19T22:46:06.495Z,13.90
2022-08-19T22:48:45.978Z,14.10
2022-08-19T22:51:33.511Z,13.70
2022-08-19T22:54:01.785Z,13.60
2022-08-19T22:56:31.625Z,13.00
2022-08-19T22:58:59.962Z,12.90
2022-08-19T23:01:30.199Z,13.30
2022-08-19T23:03:59.609Z,13.50
2022-08-19T23:06:33.520Z,13.50
2022-08-19T23:09:04.767Z,13.70
2022-08-19T23:11:35.650Z,14.40
2022-08-19T23:14:06.640Z,13.80
2022-08-19T23:16:37.142Z,14.00
2022-08-19T23:19:05.376Z,13.90
2022-08-19T23:21:36.192Z,14.10
2022-08-19T23:24:05.145Z,14.20
2022-08-19T23:26:35.912Z,14.10
2022-08-19T23:29:23.297Z,14.20
2022-08-19T23:31:51.445Z,14.40
2022-08-19T23:34:19.744Z,14.50
2022-08-19T23:36:50.658Z,14.20
2022-08-19T23:39:19.300Z,14.70
2022-08-19T23:41:48.310Z,14.90
2022-08-19T23:44:17.251Z,14.90
2022-08-19T23:46:54.891Z,14.70
2022-08-19T23:49:25.746Z,14.70
2022-08-19T23:51:55.734Z,14.70
2022-08-19T23:54:27.511Z,15.00
2022-08-19T23:57:13.407Z,15.20
2022-08-19T23:59:45.274Z,15.00
